Historyczne dane pomiarowe

Dodano dane terminowe – wersja testowa.

Dane z okresu 1951-2019

Wersja bazy: 1.34 [2019-03-16, lista zmian], aktualizacja planowana na 2019-04-15

Dane meteo z obszaru Polski uzyskane na podstawie danych udostępnionych przez Instytut Meteorologii i Gospodarki Wodnej – Państwowy Instytut Badawczy.

 

Wybierz Datę:    

       

TemperaturaWilgotnośćWiatrCiśnienieOpadyŚniegCzas trwania zjawisk
 Stacja t tx tn tng RH VA  wxwx mslp ppp RRR   cm mm wxwxwxwxwxwxwx
1961-08-14 15.0 18.9 9.8 6.2-- 5.7 1.7---- 0.0------------
1961-08-13 13.8 17.7 12.5 12.0-- 3.0 2.7---- 0.0------------
1961-08-12 16.8 20.9 14.5 13.8-- 7.3 0.7---- 0.1------------
1961-08-11 16.0 18.5 14.7 14.0-- 5.7 1.0---- 4.0------------
1961-08-10 18.7 22.3 11.3 8.2-- 2.7 1.7---- 0.0------------
1961-08-09 17.8 25.4 14.5 12.8-- 4.7 2.0---- 0.0------------
1961-08-08 15.7 20.0 12.3 10.7-- 6.3 1.3---- 0.0------------
1961-08-07 14.9 17.5 13.2 13.2-- 7.3 0.3---- 10.5------------
1961-08-06 19.4 27.4 13.2 11.4-- 4.7 2.7---- 0.1------------
1961-08-05 16.2 20.4 12.5 11.7-- 7.3 2.7---- 0.0------------
1961-08-04 15.1 18.2 9.7 6.2-- 5.3 2.0---- 0.6------------
1961-08-03 15.6 19.0 14.0 14.1-- 8.0 1.0---- 2.2------------
1961-08-02 17.3 22.0 11.8 9.7-- 4.0 2.3---- 2.5------------
1961-08-01 13.4 15.5 12.0 11.6-- 8.0 7.7---- 4.0------------
1961-07-31 15.9 18.7 12.0 11.5-- 7.7 5.7---- 1.5------------
1961-07-30 13.3 16.6 11.0 10.6-- 8.0 1.7---- 10.8------------
1961-07-29 14.2 18.2 13.0 12.2-- 7.0 2.0---- 0.0------------
1961-07-28 15.4 16.7 12.8 10.7-- 7.7 3.7---- 6.2------------
1961-07-27 16.5 22.0 14.4 13.5-- 7.3 3.0---- 0.0------------
1961-07-26 14.9 16.5 12.4 10.8-- 8.0 3.3---- 2.5------------
1961-07-25 14.0 16.7 10.5 8.2-- 8.0 3.3---- 0.1------------
1961-07-24 14.7 18.4 11.6 10.2-- 6.0 3.3---- 1.5------------
1961-07-23 14.7 16.4 13.1 11.2-- 8.0 2.3---- 0.0------------
1961-07-22 14.4 17.7 11.6 10.0-- 8.0 1.7---- 21.0------------
1961-07-21 14.9 19.2 11.6 7.2-- 5.3 1.3---- 0.0------------
1961-07-20 16.4 21.3 11.3 8.8-- 3.0 1.3---- 0.0------------
1961-07-19 14.5 20.7 11.3 7.4-- 4.7 1.7---- 0.6------------
1961-07-18 13.9 17.3 12.0 9.7-- 8.0 1.3---- 3.2------------
1961-07-17 16.2 20.8 11.7 11.0-- 5.3 2.0---- 10.5------------
1961-07-16 15.2 21.3 10.5 7.7-- 8.0 2.7---- 21.2------------
1961-07-15 16.5 23.3 10.7 8.9-- 3.3 1.7---- 0.0------------
1961-07-14 14.4 22.8 12.8 13.3-- 8.0 4.3---- 0.0------------
1961-07-13 20.8 25.3 11.7 11.6-- 6.0 4.0---- 0.3------------
1961-07-12 15.3 20.1 10.0 6.4-- 4.0 2.0---- 0.6------------
1961-07-11 14.1 18.2 10.6 8.2-- 3.0 1.7---- 2.6------------
1961-07-10 13.1 16.7 11.7 11.2-- 5.3 2.3---- 3.6------------
1961-07-09 16.6 22.3 13.3 11.2-- 4.0 3.0---- 1.4------------
1961-07-08 14.8 17.9 10.2 7.8-- 6.3 2.7---- 0.0------------
1961-07-07 13.4 17.7 10.0 7.2-- 5.0 3.7---- 0.0------------
1961-07-06 12.8 16.2 9.0 7.6-- 5.0 3.0---- 0.0------------
1961-07-05 14.4 16.7 12.9 12.1-- 6.3 4.3---- 0.0------------
1961-07-04 17.4 24.1 14.9 13.6-- 6.3 2.3---- 3.5------------
1961-07-03 23.7 28.7 13.5 11.2-- 2.7 1.7---- 3.2------------
1961-07-02 20.3 25.6 13.0 9.8-- 0.0 2.0---- 0.0------------
1961-07-01 16.1 21.4 11.0 8.0-- 3.7 0.7---- 0.0------------
1961-06-30 16.2 20.3 11.3 10.2-- 0.0 3.7---- 0.0------------
1961-06-29 13.4 16.9 10.4 7.9-- 7.3 2.3---- 1.7------------
1961-06-28 14.0 19.1 12.0 14.2-- 4.7 4.0---- 2.8------------
1961-06-27 21.3 29.8 14.1 10.4-- 4.3 4.3---- 15.0------------
1961-06-26 18.8 23.9 15.1 9.7-- 0.3 1.7---- 0.0------------
1961-06-25 19.5 24.8 14.5 10.7-- 4.0 4.0---- 0.0------------
1961-06-24 16.3 19.0 12.7 9.2-- 7.7 3.7---- 0.0------------
1961-06-23 16.2 21.9 12.6 10.2-- 4.0 1.7---- 0.0------------
1961-06-22 14.7 19.2 9.1 6.2-- 1.3 2.3---- 0.0------------
1961-06-21 13.2 19.4 9.5 7.7-- 6.7 3.7---- 6.0------------
1961-06-20 12.9 16.8 10.4 7.9-- 2.3 4.0---- 0.0------------
1961-06-19 14.9 20.0 13.5 12.2-- 3.7 4.3---- 0.0------------
1961-06-18 19.3 24.3 13.5 10.2-- 8.0 3.3---- 1.0------------
1961-06-17 14.9 19.3 11.6 10.8-- 8.0 2.0---- 0.1------------
1961-06-16 13.3 16.2 10.0 10.2-- 8.0 6.0---- 24.0------------
372.9 ms

 

Źródłem pochodzenia danych jest Instytut Meteorologii i Gospodarki Wodnej – Państwowy Instytut Badawczy. Dane Instytutu Meteorologii i Gospodarki Wodnej – Państwowego Instytutu Badawczego zostały przetworzone.

Dane źródłowe można odnaleźć na stronie https://dane.imgw.pl